createdAt,value
2023-02-06T00:00:43.383Z,13.00
2023-02-06T00:03:06.294Z,13.03
2023-02-06T00:05:09.172Z,13.03
2023-02-06T00:07:11.619Z,10.63
2023-02-06T00:09:14.904Z,13.00
2023-02-06T00:11:17.446Z,14.70
2023-02-06T00:13:20.452Z,8.17
2023-02-06T00:15:24.243Z,10.03
2023-02-06T00:17:27.085Z,11.27
2023-02-06T00:19:29.620Z,9.27
2023-02-06T00:21:32.639Z,9.50
2023-02-06T00:23:35.090Z,7.97
2023-02-06T00:25:38.053Z,9.63
2023-02-06T00:27:40.644Z,8.73
2023-02-06T00:29:42.992Z,9.20
2023-02-06T00:31:45.637Z,11.23
2023-02-06T00:33:48.185Z,10.77
2023-02-06T00:35:50.666Z,10.57
2023-02-06T00:37:53.493Z,10.27
2023-02-06T00:39:56.002Z,8.47
2023-02-06T00:41:58.428Z,11.60
2023-02-06T00:44:00.974Z,8.03
2023-02-06T00:46:03.738Z,13.63
2023-02-06T00:48:06.310Z,7.63
2023-02-06T00:50:09.284Z,9.27
2023-02-06T00:52:11.761Z,9.17
2023-02-06T00:54:14.328Z,10.90
2023-02-06T00:56:16.798Z,15.13
2023-02-06T00:58:19.340Z,9.40
2023-02-06T01:00:21.804Z,10.67
2023-02-06T01:02:24.275Z,11.20
2023-02-06T01:04:26.788Z,10.13
2023-02-06T01:06:29.569Z,11.30
2023-02-06T01:08:32.338Z,11.10
2023-02-06T01:10:34.764Z,8.57
2023-02-06T01:12:37.591Z,8.10
2023-02-06T01:14:40.003Z,11.27
2023-02-06T01:16:42.500Z,9.70
2023-02-06T01:18:44.952Z,13.20
2023-02-06T01:20:47.441Z,12.57
2023-02-06T01:22:50.252Z,10.03
2023-02-06T01:24:52.741Z,7.20
2023-02-06T01:26:55.559Z,8.40
2023-02-06T01:28:58.127Z,7.03
2023-02-06T01:31:00.933Z,9.77
2023-02-06T01:33:03.543Z,9.27
2023-02-06T01:35:07.730Z,9.13
2023-02-06T01:37:09.799Z,5.73
2023-02-06T01:39:12.556Z,8.70
2023-02-06T01:41:16.443Z,8.53
2023-02-06T01:43:19.350Z,6.70
2023-02-06T01:45:39.982Z,8.57
2023-02-06T01:47:42.929Z,7.03
2023-02-06T01:49:48.062Z,7.43
2023-02-06T01:51:53.207Z,6.33
2023-02-06T01:54:02.194Z,8.90
2023-02-06T01:56:07.472Z,7.47
2023-02-06T01:58:13.122Z,9.10
2023-02-06T02:00:15.984Z,6.77
2023-02-06T02:02:18.778Z,7.03
2023-02-06T02:04:24.418Z,6.63
2023-02-06T02:06:27.712Z,7.00
2023-02-06T02:08:40.733Z,9.13
2023-02-06T02:10:43.308Z,11.13
2023-02-06T02:12:46.166Z,7.63
2023-02-06T02:14:50.015Z,6.23
2023-02-06T02:16:52.748Z,10.77
2023-02-06T02:19:05.931Z,8.43
2023-02-06T02:21:11.788Z,6.73
2023-02-06T02:23:24.910Z,7.33
2023-02-06T02:26:04.653Z,9.17
2023-02-06T02:28:07.172Z,6.13
2023-02-06T02:30:12.870Z,6.90
2023-02-06T02:32:39.408Z,6.03
2023-02-06T02:34:45.196Z,8.03
2023-02-06T02:37:08.924Z,5.67
2023-02-06T02:39:17.822Z,6.27
2023-02-06T02:41:28.670Z,5.43
2023-02-06T02:43:54.058Z,5.17
2023-02-06T02:46:35.154Z,7.57
2023-02-06T02:48:43.754Z,6.43
2023-02-06T02:50:46.619Z,8.83
2023-02-06T02:52:49.658Z,9.50
2023-02-06T02:54:52.137Z,10.37
2023-02-06T02:57:02.832Z,9.07
2023-02-06T02:59:11.242Z,8.10
2023-02-06T03:01:19.447Z,7.37
2023-02-06T03:03:23.957Z,8.43
2023-02-06T03:05:28.056Z,7.70
2023-02-06T03:07:55.550Z,8.93
2023-02-06T03:10:11.358Z,7.27
2023-02-06T03:12:18.362Z,11.13
2023-02-06T03:14:40.823Z,8.93
2023-02-06T03:16:50.623Z,9.07
2023-02-06T03:19:07.120Z,10.00
2023-02-06T03:21:13.807Z,6.03
2023-02-06T03:23:30.703Z,7.20
2023-02-06T03:25:40.601Z,7.03
2023-02-06T03:27:45.606Z,5.70
2023-02-06T03:29:50.419Z,11.70
2023-02-06T03:31:59.498Z,6.90
2023-02-06T03:34:15.074Z,6.63
2023-02-06T03:36:18.549Z,10.83
2023-02-06T03:38:20.801Z,6.17
2023-02-06T03:40:25.027Z,7.67
2023-02-06T03:42:29.710Z,10.33
2023-02-06T03:44:36.434Z,11.60
2023-02-06T03:46:40.782Z,14.23
2023-02-06T03:48:50.458Z,12.53
2023-02-06T03:50:54.458Z,11.55
2023-02-06T03:52:59.291Z,14.07
2023-02-06T03:55:07.197Z,13.20
2023-02-06T03:57:14.283Z,14.87
2023-02-06T03:59:16.804Z,15.80
2023-02-06T04:01:19.857Z,13.67
2023-02-06T04:03:22.982Z,10.50
2023-02-06T04:05:26.247Z,17.23
2023-02-06T04:07:31.235Z,15.97
2023-02-06T04:09:33.971Z,17.17
2023-02-06T04:11:36.489Z,13.00
2023-02-06T04:13:39.256Z,14.60
2023-02-06T04:15:41.704Z,13.30
2023-02-06T04:17:58.957Z,14.13
2023-02-06T04:20:02.952Z,18.07
2023-02-06T04:22:06.908Z,18.70
2023-02-06T04:24:09.409Z,20.07
2023-02-06T04:26:12.166Z,18.50
2023-02-06T04:28:14.816Z,16.57
2023-02-06T04:30:18.420Z,20.93
2023-02-06T04:32:21.089Z,16.70
2023-02-06T04:34:23.925Z,18.37
2023-02-06T04:36:26.403Z,19.87
2023-02-06T04:38:28.895Z,19.80
2023-02-06T04:40:31.441Z,21.40
2023-02-06T04:42:33.869Z,21.70
2023-02-06T04:44:38.542Z,22.87
2023-02-06T04:46:41.046Z,21.17
2023-02-06T04:48:43.624Z,23.40
2023-02-06T04:50:46.140Z,23.97
2023-02-06T04:52:48.697Z,18.90
2023-02-06T04:54:51.482Z,21.57
2023-02-06T04:56:54.005Z,20.30
2023-02-06T04:58:56.880Z,18.67
2023-02-06T05:00:59.134Z,25.03
2023-02-06T05:03:01.912Z,24.10
2023-02-06T05:05:05.317Z,23.67
2023-02-06T05:07:08.087Z,25.03
2023-02-06T05:09:10.460Z,23.97
2023-02-06T05:11:13.271Z,24.63
2023-02-06T05:13:15.799Z,25.37
2023-02-06T05:15:18.702Z,26.17
2023-02-06T05:17:21.150Z,24.77
2023-02-06T05:19:23.985Z,29.57
2023-02-06T05:21:26.738Z,21.77
2023-02-06T05:23:29.790Z,23.77
2023-02-06T05:25:32.278Z,23.43
2023-02-06T05:27:35.054Z,25.63
2023-02-06T05:29:37.537Z,19.97
2023-02-06T05:31:40.761Z,23.77
2023-02-06T05:33:43.296Z,24.40
2023-02-06T05:35:46.257Z,27.33
2023-02-06T05:37:48.811Z,27.20
2023-02-06T05:39:51.594Z,28.73
2023-02-06T05:41:53.834Z,26.97
2023-02-06T05:43:56.622Z,26.83
2023-02-06T05:46:01.738Z,21.60
2023-02-06T05:48:04.717Z,26.07
2023-02-06T05:50:07.039Z,29.93
2023-02-06T05:52:09.826Z,28.20
2023-02-06T05:54:12.092Z,25.73
2023-02-06T05:56:14.872Z,25.07
2023-02-06T05:58:17.136Z,29.30
2023-02-06T06:00:20.194Z,26.20
2023-02-06T06:02:22.708Z,25.73
2023-02-06T06:04:25.806Z,23.87
2023-02-06T06:06:28.044Z,32.10
2023-02-06T06:08:30.819Z,33.37
2023-02-06T06:10:33.004Z,28.83
2023-02-06T06:12:35.785Z,26.37
2023-02-06T06:14:37.908Z,31.40
2023-02-06T06:16:41.986Z,28.53
2023-02-06T06:18:44.101Z,29.63
2023-02-06T06:20:47.435Z,30.83
2023-02-06T06:22:49.997Z,33.50
2023-02-06T06:24:52.891Z,31.00
2023-02-06T06:26:55.467Z,26.90
2023-02-06T06:28:58.272Z,29.53
2023-02-06T06:31:05.709Z,24.03
2023-02-06T06:33:08.611Z,28.47
2023-02-06T06:35:11.137Z,29.27
2023-02-06T06:37:14.026Z,27.93
2023-02-06T06:39:16.582Z,27.90
2023-02-06T06:41:19.282Z,24.40
2023-02-06T06:43:21.713Z,27.80
2023-02-06T06:45:24.513Z,27.97
2023-02-06T06:47:27.057Z,30.70
2023-02-06T06:49:30.176Z,30.73
2023-02-06T06:51:32.824Z,29.38
2023-02-06T06:53:40.210Z,30.27
2023-02-06T06:55:42.894Z,29.25
2023-02-06T06:57:46.323Z,28.10
2023-02-06T06:59:49.045Z,34.20
2023-02-06T07:01:52.601Z,28.90
2023-02-06T07:03:55.082Z,28.33
2023-02-06T07:05:57.889Z,26.48
2023-02-06T07:08:00.330Z,26.80
2023-02-06T07:10:03.136Z,26.58
2023-02-06T07:12:05.883Z,28.05
2023-02-06T07:14:08.687Z,29.67
2023-02-06T07:16:12.090Z,29.15
2023-02-06T07:18:14.955Z,25.67
2023-02-06T07:20:17.630Z,28.88
2023-02-06T07:22:20.614Z,27.85
2023-02-06T07:24:23.207Z,31.83
2023-02-06T07:26:25.981Z,34.15
2023-02-06T07:28:32.626Z,31.35
2023-02-06T07:30:35.447Z,29.48
2023-02-06T07:32:37.971Z,31.20
2023-02-06T07:34:40.858Z,33.15
2023-02-06T07:36:43.742Z,33.63
2023-02-06T07:38:46.504Z,34.60
2023-02-06T07:40:49.240Z,35.63
2023-02-06T07:42:52.121Z,28.75
2023-02-06T07:44:55.042Z,36.85
2023-02-06T07:46:58.756Z,31.13
2023-02-06T07:49:01.316Z,28.15
2023-02-06T07:51:06.265Z,29.27
2023-02-06T07:53:08.871Z,32.47
2023-02-06T07:55:11.635Z,31.20
2023-02-06T07:57:14.148Z,30.48
2023-02-06T07:59:17.176Z,31.52
2023-02-06T08:01:20.050Z,32.17
2023-02-06T08:03:22.929Z,31.48
2023-02-06T08:05:25.693Z,42.47
2023-02-06T08:07:28.443Z,36.20
2023-02-06T08:09:31.784Z,33.75
2023-02-06T08:11:35.945Z,32.85
2023-02-06T08:13:38.743Z,38.85
2023-02-06T08:15:41.623Z,37.50
2023-02-06T08:17:44.574Z,43.72
2023-02-06T08:19:47.583Z,42.00
2023-02-06T08:21:50.006Z,45.50
2023-02-06T08:23:56.820Z,43.28
2023-02-06T08:26:07.986Z,53.20
2023-02-06T08:28:14.972Z,45.60
2023-02-06T08:30:17.602Z,52.67
2023-02-06T08:32:20.386Z,56.40
2023-02-06T08:34:22.900Z,65.45
2023-02-06T08:36:25.992Z,68.50
2023-02-06T08:38:28.455Z,68.63
2023-02-06T08:40:31.219Z,75.37
2023-02-06T08:42:33.842Z,81.30
2023-02-06T08:44:36.613Z,84.37
2023-02-06T08:46:39.712Z,84.97
2023-02-06T08:48:42.731Z,77.43
2023-02-06T08:50:46.638Z,76.70
2023-02-06T08:52:49.452Z,78.70
2023-02-06T08:54:52.939Z,86.00
2023-02-06T08:57:01.024Z,87.73
2023-02-06T08:59:04.385Z,82.63
2023-02-06T09:01:13.888Z,98.90
2023-02-06T09:03:16.374Z,62.65
2023-02-06T09:05:19.179Z,77.30
2023-02-06T09:07:22.543Z,91.17
2023-02-06T09:09:25.377Z,86.13
2023-02-06T09:11:28.293Z,97.83
2023-02-06T09:13:32.243Z,102.23
2023-02-06T09:15:35.113Z,97.23
2023-02-06T09:17:38.076Z,113.87
2023-02-06T09:19:40.620Z,116.73
2023-02-06T09:21:43.079Z,111.27
2023-02-06T09:23:51.266Z,111.37
2023-02-06T09:25:54.037Z,97.87
2023-02-06T09:27:57.172Z,90.47
2023-02-06T09:30:00.047Z,82.60
2023-02-06T09:32:02.560Z,92.77
2023-02-06T09:34:05.908Z,86.10
2023-02-06T09:36:13.742Z,87.87
2023-02-06T09:38:16.574Z,87.57
2023-02-06T09:40:24.454Z,87.20
2023-02-06T09:42:37.371Z,90.83
2023-02-06T09:44:44.416Z,94.07
2023-02-06T09:47:17.187Z,92.60
2023-02-06T09:49:43.197Z,82.70
2023-02-06T09:51:57.734Z,79.27
2023-02-06T09:54:30.043Z,93.30
2023-02-06T09:56:47.775Z,95.80
2023-02-06T09:59:02.415Z,92.70
2023-02-06T10:01:14.786Z,87.10
2023-02-06T10:03:17.345Z,85.15
2023-02-06T10:05:39.231Z,84.85
2023-02-06T10:07:57.846Z,83.78
2023-02-06T10:10:10.920Z,86.38
2023-02-06T10:12:15.428Z,80.13
2023-02-06T10:14:32.888Z,83.03
2023-02-06T10:16:57.536Z,72.38
2023-02-06T10:19:04.969Z,68.63
2023-02-06T10:21:31.987Z,69.18
2023-02-06T10:23:51.638Z,71.07
2023-02-06T10:26:18.229Z,70.90
2023-02-06T10:28:25.045Z,69.57
2023-02-06T10:30:40.405Z,78.78
2023-02-06T10:32:46.279Z,73.47
2023-02-06T10:34:48.828Z,77.13
2023-02-06T10:36:59.220Z,74.88
2023-02-06T10:41:20.349Z,76.85
2023-02-06T10:43:22.808Z,73.97
2023-02-06T10:45:44.126Z,68.20
2023-02-06T10:48:24.741Z,68.72
2023-02-06T10:50:37.449Z,67.47
2023-02-06T10:52:40.169Z,65.63
2023-02-06T10:54:47.816Z,65.65
2023-02-06T10:56:52.704Z,75.35
2023-02-06T10:58:58.094Z,73.50
2023-02-06T11:01:01.149Z,74.00
2023-02-06T11:03:08.105Z,71.40
2023-02-06T11:05:16.513Z,67.95
2023-02-06T11:07:26.838Z,70.15
2023-02-06T11:09:29.310Z,78.00
2023-02-06T11:11:37.313Z,61.58
2023-02-06T11:13:40.109Z,67.25
2023-02-06T11:15:50.465Z,62.13
2023-02-06T11:20:01.748Z,67.47
2023-02-06T11:22:12.648Z,62.47
2023-02-06T11:24:16.534Z,73.50
2023-02-06T11:26:21.034Z,73.32
2023-02-06T11:28:25.036Z,76.45
2023-02-06T11:30:38.202Z,72.05
2023-02-06T11:32:52.877Z,60.80
2023-02-06T11:35:02.669Z,69.10
2023-02-06T11:37:25.455Z,69.40
2023-02-06T11:39:33.020Z,71.05
2023-02-06T11:41:35.798Z,58.95
2023-02-06T11:43:41.454Z,62.78
2023-02-06T11:45:44.738Z,64.88
2023-02-06T11:47:48.153Z,59.60
2023-02-06T11:49:51.023Z,56.30
2023-02-06T11:51:53.997Z,53.00
2023-02-06T11:53:59.905Z,54.38
2023-02-06T11:56:07.624Z,51.15
2023-02-06T11:58:13.100Z,52.90
2023-02-06T12:00:23.357Z,49.17
2023-02-06T12:02:28.003Z,46.15
2023-02-06T12:04:40.797Z,45.63
2023-02-06T12:06:44.009Z,51.30
2023-02-06T12:08:51.978Z,50.78
2023-02-06T12:11:02.808Z,50.70
2023-02-06T12:13:14.598Z,42.23
2023-02-06T12:15:44.825Z,40.37
2023-02-06T12:17:56.710Z,36.40
2023-02-06T12:20:26.477Z,36.40
2023-02-06T12:22:33.117Z,41.22
2023-02-06T12:24:41.094Z,42.72
2023-02-06T12:26:45.015Z,40.07
2023-02-06T12:29:00.350Z,41.43
2023-02-06T12:31:13.172Z,46.13
2023-02-06T12:33:23.022Z,46.92
2023-02-06T12:35:59.669Z,39.60
2023-02-06T12:38:08.164Z,42.87
2023-02-06T12:40:28.981Z,42.93
2023-02-06T12:43:04.897Z,46.37
2023-02-06T12:45:48.709Z,47.87
2023-02-06T12:48:13.641Z,54.50
2023-02-06T12:50:26.996Z,49.97
2023-02-06T12:52:41.463Z,61.60
2023-02-06T12:54:59.361Z,50.87
2023-02-06T12:57:25.821Z,57.03
2023-02-06T13:00:05.435Z,46.83
2023-02-06T13:02:26.253Z,45.67
2023-02-06T13:04:31.785Z,40.53
2023-02-06T13:06:53.438Z,37.60
2023-02-06T13:08:57.573Z,40.97
2023-02-06T13:11:05.547Z,33.10
2023-02-06T13:13:24.829Z,34.93
2023-02-06T13:15:28.796Z,33.50
2023-02-06T13:17:35.783Z,34.43
2023-02-06T13:19:38.628Z,33.83
2023-02-06T13:21:40.756Z,38.97
2023-02-06T13:24:03.407Z,31.77
2023-02-06T13:26:05.502Z,32.00
2023-02-06T13:28:23.089Z,33.57
2023-02-06T13:30:31.043Z,34.40
2023-02-06T13:32:43.670Z,37.20
2023-02-06T13:34:58.430Z,38.13
2023-02-06T13:37:37.363Z,37.00
2023-02-06T13:39:39.518Z,34.17
2023-02-06T13:41:44.637Z,39.63
2023-02-06T13:44:06.705Z,39.73
2023-02-06T13:46:20.065Z,37.53
2023-02-06T13:49:16.409Z,42.20
2023-02-06T13:51:24.691Z,34.73
2023-02-06T13:53:26.704Z,40.00
2023-02-06T13:55:43.247Z,36.47
2023-02-06T13:57:51.361Z,35.40
2023-02-06T14:00:23.100Z,37.60
2023-02-06T14:02:39.996Z,37.00
2023-02-06T14:04:45.303Z,37.97
2023-02-06T14:07:13.578Z,34.47
2023-02-06T14:09:15.639Z,39.37
2023-02-06T14:11:48.412Z,32.90
2023-02-06T14:14:24.848Z,31.27
2023-02-06T14:16:36.080Z,38.13
2023-02-06T14:19:08.940Z,33.83
2023-02-06T14:21:35.453Z,33.30
2023-02-06T14:23:59.420Z,29.37
2023-02-06T14:26:09.371Z,32.13
2023-02-06T14:28:23.235Z,34.08
2023-02-06T14:30:42.281Z,32.00
2023-02-06T14:32:59.161Z,36.30
2023-02-06T14:35:39.673Z,28.30
2023-02-06T14:38:19.690Z,29.83
2023-02-06T14:40:28.489Z,32.57
2023-02-06T14:42:41.750Z,30.53
2023-02-06T14:44:50.602Z,29.20
2023-02-06T14:46:53.028Z,30.60
2023-02-06T14:48:59.951Z,32.57
2023-02-06T14:51:02.229Z,34.23
2023-02-06T14:53:16.861Z,30.90
2023-02-06T14:55:31.172Z,29.37
2023-02-06T14:57:33.613Z,26.73
2023-02-06T14:59:35.830Z,29.77
2023-02-06T15:01:38.453Z,24.33
2023-02-06T15:03:41.973Z,24.40
2023-02-06T15:05:45.226Z,27.57
2023-02-06T15:07:58.563Z,24.10
2023-02-06T15:10:06.266Z,26.33
2023-02-06T15:12:25.011Z,26.33
2023-02-06T15:14:30.579Z,27.57
2023-02-06T15:16:49.324Z,23.30
2023-02-06T15:18:51.450Z,24.23
2023-02-06T15:21:02.163Z,24.13
2023-02-06T15:23:18.032Z,26.73
2023-02-06T15:25:36.133Z,23.27
2023-02-06T15:27:39.417Z,25.07
2023-02-06T15:29:49.154Z,35.47
2023-02-06T15:32:01.553Z,28.10
2023-02-06T15:34:04.110Z,28.80
2023-02-06T15:36:06.602Z,29.90
2023-02-06T15:38:15.249Z,30.37
2023-02-06T15:40:27.602Z,34.30
2023-02-06T15:42:30.637Z,31.47
2023-02-06T15:44:36.077Z,32.93
2023-02-06T15:46:39.141Z,36.53
2023-02-06T15:48:48.371Z,35.40
2023-02-06T15:50:59.048Z,29.92
2023-02-06T15:53:16.420Z,33.73
2023-02-06T15:55:36.154Z,33.23
2023-02-06T15:57:43.685Z,31.25
2023-02-06T15:59:46.209Z,33.40
2023-02-06T16:01:48.986Z,34.80
2023-02-06T16:03:56.066Z,30.47
2023-02-06T16:05:58.415Z,31.87
2023-02-06T16:08:02.988Z,35.47
2023-02-06T16:10:25.677Z,39.47
2023-02-06T16:12:36.511Z,32.13
2023-02-06T16:14:40.825Z,37.27
2023-02-06T16:16:59.433Z,28.17
2023-02-06T16:19:01.587Z,35.13
2023-02-06T16:21:16.269Z,40.17
2023-02-06T16:23:41.857Z,33.90
2023-02-06T16:25:46.084Z,32.57
2023-02-06T16:27:50.846Z,35.50
2023-02-06T16:29:56.118Z,46.90
2023-02-06T16:32:11.847Z,37.27
2023-02-06T16:34:40.990Z,36.53
2023-02-06T16:36:43.120Z,46.37
2023-02-06T16:38:54.073Z,47.27
2023-02-06T16:41:04.418Z,53.83
2023-02-06T16:43:11.296Z,62.50
2023-02-06T16:45:19.883Z,54.73
2023-02-06T16:47:23.027Z,65.17
2023-02-06T16:49:25.190Z,64.20
2023-02-06T16:51:31.135Z,69.10
2023-02-06T16:53:33.330Z,65.43
2023-02-06T16:55:35.922Z,66.60
2023-02-06T16:57:43.352Z,72.50
2023-02-06T16:59:45.813Z,69.83
2023-02-06T17:01:48.124Z,75.23
2023-02-06T17:03:51.571Z,68.80
2023-02-06T17:05:54.634Z,68.27
2023-02-06T17:07:57.176Z,70.67
2023-02-06T17:09:59.724Z,77.43
2023-02-06T17:12:02.239Z,80.10
2023-02-06T17:14:04.911Z,82.23
2023-02-06T17:16:10.167Z,89.40
2023-02-06T17:18:15.376Z,81.13
2023-02-06T17:20:31.628Z,83.27
2023-02-06T17:22:34.192Z,76.47
2023-02-06T17:24:37.596Z,86.57
2023-02-06T17:26:39.712Z,82.50
2023-02-06T17:28:42.503Z,86.07
2023-02-06T17:30:46.367Z,88.30
2023-02-06T17:32:49.332Z,92.00
2023-02-06T17:34:54.509Z,74.93
2023-02-06T17:36:57.209Z,74.70
2023-02-06T17:39:00.290Z,81.47
2023-02-06T17:41:02.900Z,77.53
2023-02-06T17:43:05.836Z,73.07
2023-02-06T17:45:08.769Z,78.67
2023-02-06T17:47:11.283Z,74.13
2023-02-06T17:49:15.020Z,73.83
2023-02-06T17:51:17.168Z,65.80
2023-02-06T17:53:19.624Z,72.23
2023-02-06T17:55:23.522Z,72.23
2023-02-06T17:57:26.024Z,68.83
2023-02-06T17:59:28.157Z,64.73
2023-02-06T18:01:31.085Z,76.53
2023-02-06T18:03:34.555Z,75.93
2023-02-06T18:05:37.709Z,76.93
2023-02-06T18:07:40.690Z,80.03
2023-02-06T18:09:43.142Z,82.63
2023-02-06T18:11:45.438Z,86.13
2023-02-06T18:13:49.759Z,77.40
2023-02-06T18:15:55.322Z,71.63
2023-02-06T18:17:58.359Z,85.67
2023-02-06T18:20:01.265Z,85.33
2023-02-06T18:22:03.462Z,89.50
2023-02-06T18:24:06.584Z,74.53
2023-02-06T18:26:09.902Z,81.30
2023-02-06T18:28:17.337Z,83.63
2023-02-06T18:30:19.571Z,87.67
2023-02-06T18:32:22.028Z,86.07
2023-02-06T18:34:24.328Z,86.17
2023-02-06T18:36:27.287Z,89.20
2023-02-06T18:38:29.437Z,88.07
2023-02-06T18:40:32.690Z,80.63
2023-02-06T18:42:54.690Z,76.67
2023-02-06T18:44:57.199Z,76.50
2023-02-06T18:46:59.528Z,73.70
2023-02-06T18:49:02.358Z,69.37
2023-02-06T18:51:07.562Z,77.73
2023-02-06T18:53:10.190Z,76.73
2023-02-06T18:55:12.427Z,78.77
2023-02-06T18:57:14.903Z,75.97
2023-02-06T18:59:17.110Z,78.40
2023-02-06T19:01:23.069Z,74.43
2023-02-06T19:03:25.185Z,78.73
2023-02-06T19:05:30.470Z,80.60
2023-02-06T19:07:32.754Z,82.20
2023-02-06T19:09:35.190Z,74.23
2023-02-06T19:11:38.025Z,88.90
2023-02-06T19:13:40.781Z,76.40
2023-02-06T19:15:42.946Z,75.50
2023-02-06T19:17:45.392Z,62.37
2023-02-06T19:19:47.598Z,63.73
2023-02-06T19:21:50.239Z,59.63
2023-02-06T19:23:57.849Z,56.53
2023-02-06T19:26:01.024Z,60.83
2023-02-06T19:28:03.604Z,63.00
2023-02-06T19:30:10.177Z,56.10
2023-02-06T19:32:12.465Z,54.37
2023-02-06T19:34:15.068Z,55.70
2023-02-06T19:36:18.467Z,58.13
2023-02-06T19:38:21.083Z,55.90
2023-02-06T19:40:23.180Z,54.83
2023-02-06T19:42:25.653Z,51.37
2023-02-06T19:44:30.733Z,53.23
2023-02-06T19:46:33.629Z,52.80
2023-02-06T19:48:36.141Z,65.63
2023-02-06T19:50:39.485Z,57.97
2023-02-06T19:52:41.577Z,65.53
2023-02-06T19:54:44.104Z,61.47
2023-02-06T19:56:47.818Z,61.20
2023-02-06T19:58:56.022Z,58.73
2023-02-06T20:00:59.256Z,57.70
2023-02-06T20:03:01.650Z,51.10
2023-02-06T20:05:04.640Z,56.70
2023-02-06T20:07:07.146Z,58.20
2023-02-06T20:09:10.133Z,55.27
2023-02-06T20:11:15.286Z,59.87
2023-02-06T20:13:17.418Z,56.20
2023-02-06T20:15:19.877Z,58.60
2023-02-06T20:17:23.588Z,60.90
2023-02-06T20:19:28.871Z,60.20
2023-02-06T20:21:34.421Z,54.80
2023-02-06T20:23:38.468Z,61.33
2023-02-06T20:25:40.878Z,58.43
2023-02-06T20:27:43.315Z,55.87
2023-02-06T20:29:46.482Z,64.23
2023-02-06T20:31:50.265Z,64.73
2023-02-06T20:33:52.753Z,61.17
2023-02-06T20:35:55.229Z,68.43
2023-02-06T20:37:57.369Z,70.67
2023-02-06T20:40:00.783Z,71.03
2023-02-06T20:42:02.959Z,78.03
2023-02-06T20:44:06.082Z,62.57
2023-02-06T20:46:09.142Z,56.70
2023-02-06T20:48:11.605Z,67.53
2023-02-06T20:50:14.528Z,65.53
2023-02-06T20:52:17.140Z,65.30
2023-02-06T20:54:20.951Z,67.07
2023-02-06T20:56:23.899Z,63.80
2023-02-06T20:58:26.881Z,59.63
2023-02-06T21:00:29.439Z,64.07
2023-02-06T21:02:31.677Z,70.37
2023-02-06T21:04:34.675Z,62.23
2023-02-06T21:06:37.998Z,60.93
2023-02-06T21:08:40.685Z,55.37
2023-02-06T21:10:42.835Z,61.20
2023-02-06T21:12:47.628Z,64.47
2023-02-06T21:14:50.216Z,60.90
2023-02-06T21:16:52.716Z,63.93
2023-02-06T21:18:55.981Z,68.23
2023-02-06T21:21:07.341Z,76.50
2023-02-06T21:23:10.242Z,80.07
2023-02-06T21:25:13.181Z,82.57
2023-02-06T21:27:15.297Z,85.33
2023-02-06T21:29:17.898Z,91.43
2023-02-06T21:31:24.213Z,91.53
2023-02-06T21:33:27.034Z,85.50
2023-02-06T21:35:30.584Z,91.13
2023-02-06T21:37:35.409Z,87.90
2023-02-06T21:39:40.640Z,89.80
2023-02-06T21:41:44.105Z,92.57
2023-02-06T21:43:48.316Z,88.70
2023-02-06T21:45:53.030Z,88.17
2023-02-06T21:47:56.702Z,88.90
2023-02-06T21:50:01.244Z,98.67
2023-02-06T21:52:05.873Z,87.53
2023-02-06T21:54:10.088Z,97.50
2023-02-06T21:56:20.165Z,85.77
2023-02-06T21:58:22.556Z,87.70
2023-02-06T22:00:25.190Z,85.03
2023-02-06T22:02:27.691Z,85.97
2023-02-06T22:04:29.977Z,91.27
2023-02-06T22:06:32.584Z,85.20
2023-02-06T22:08:36.832Z,90.57
2023-02-06T22:10:39.319Z,90.53
2023-02-06T22:12:41.484Z,87.30
2023-02-06T22:14:44.234Z,80.03
2023-02-06T22:16:46.962Z,86.03
2023-02-06T22:18:50.079Z,81.50
2023-02-06T22:21:09.994Z,98.37
2023-02-06T22:23:12.511Z,88.30
2023-02-06T22:25:14.717Z,79.37
2023-02-06T22:27:17.668Z,82.70
2023-02-06T22:29:19.840Z,82.80
2023-02-06T22:31:25.451Z,71.77
2023-02-06T22:33:27.637Z,68.33
2023-02-06T22:35:30.143Z,75.73
2023-02-06T22:37:33.755Z,76.90
2023-02-06T22:39:36.278Z,81.90
2023-02-06T22:41:43.838Z,78.10
2023-02-06T22:43:48.386Z,74.53
2023-02-06T22:45:50.506Z,81.73
2023-02-06T22:47:53.004Z,72.60
2023-02-06T22:49:55.231Z,91.43
2023-02-06T22:51:58.835Z,78.03
2023-02-06T22:54:01.602Z,69.00
2023-02-06T22:56:31.135Z,74.10
2023-02-06T22:58:33.260Z,72.93
2023-02-06T23:00:35.755Z,77.83
2023-02-06T23:02:39.103Z,80.67
2023-02-06T23:04:41.671Z,78.17
2023-02-06T23:06:44.656Z,74.43
2023-02-06T23:08:47.523Z,69.73
2023-02-06T23:10:49.652Z,78.63
2023-02-06T23:12:52.243Z,66.00
2023-02-06T23:14:54.502Z,67.30
2023-02-06T23:16:57.474Z,77.93
2023-02-06T23:19:02.100Z,65.73
2023-02-06T23:21:12.623Z,62.97
2023-02-06T23:23:14.739Z,73.53
2023-02-06T23:25:17.248Z,61.37
2023-02-06T23:27:21.047Z,61.00
2023-02-06T23:29:24.359Z,72.50
2023-02-06T23:31:27.999Z,63.40
2023-02-06T23:33:30.566Z,57.13
2023-02-06T23:35:38.247Z,72.90
2023-02-06T23:37:40.880Z,64.63
2023-02-06T23:39:42.986Z,61.37
2023-02-06T23:41:45.554Z,65.30
2023-02-06T23:43:52.586Z,60.00
2023-02-06T23:45:55.057Z,61.90
2023-02-06T23:47:57.318Z,57.50
2023-02-06T23:49:59.796Z,56.67
2023-02-06T23:52:02.016Z,56.03
2023-02-06T23:54:06.304Z,52.47
2023-02-06T23:56:21.458Z,51.43
2023-02-06T23:58:24.030Z,55.70
